Time;durP1;ratioP1;P1;durP2;ratioP2;P2;SDS_P1;SDS_P2;PMS_P1;PMS_P2;Temp;Humidity;BMP_temperature;BMP_pressure;BME280_temperature;BME280_humidity;BME280_pressure;Samples;Min_cycle;Max_cycle;Signal;HPM_P1;HPM_P2
2022/09/03 00:01:20;;;;;;;;;;;;;;;23.63;60.53;99267.31;4970530;28;20461;-76
2022/09/03 00:03:56;;;;;;;;;;;;;;;23.65;60.98;99262.47;4970602;28;19914;-76
2022/09/03 00:06:37;;;;;;;;;;;;;;;23.65;61.00;99250.88;4969352;28;20215;-76
2022/09/03 00:09:14;;;;;;;;;;;;;;;23.64;61.07;99265.44;4970397;28;19918;-76
2022/09/03 00:11:39;;;;;;;;;;;;;;;23.64;60.59;99266.22;4970612;28;19910;-76
2022/09/03 00:14:11;;;;;;;;;;;;;;;23.63;62.15;99264.63;4970489;28;19921;-76
2022/09/03 00:16:42;;;;;;;;;;;;;;;23.65;60.33;99264.34;4970530;28;19949;-76
2022/09/03 00:19:07;;;;;;;;;;;;;;;23.59;61.24;99277.00;4970295;28;19972;-76
2022/09/03 00:21:37;;;;;;;;;;;;;;;23.60;61.07;99277.81;4970314;28;20424;-76
2022/09/03 00:24:03;;;;;;;;;;;;;;;23.59;60.78;99274.31;4969207;28;19921;-76
2022/09/03 00:26:32;;;;;;;;;;;;;;;23.54;61.00;99268.09;4970285;28;19918;-76
2022/09/03 00:29:01;;;;;;;;;;;;;;;23.55;61.40;99267.03;4969006;28;19914;-76
2022/09/03 00:31:33;;;;;;;;;;;;;;;23.46;61.27;99272.94;4969002;28;19922;-76
2022/09/03 00:34:04;;;;;;;;;;;;;;;23.43;61.54;99272.66;4970408;28;19914;-76
2022/09/03 00:36:34;;;;;;;;;;;;;;;23.48;61.31;99271.84;4970482;28;19914;-76
2022/09/03 00:39:00;;;;;;;;;;;;;;;23.52;61.67;99270.25;4970199;28;19914;-76
2022/09/03 00:41:30;;;;;;;;;;;;;;;23.55;60.32;99269.75;4970264;28;19998;-76
2022/09/03 00:44:20;;;;;;;;;;;;;;;23.50;61.45;99265.13;4971557;28;20424;-76
2022/09/03 00:46:48;;;;;;;;;;;;;;;23.41;61.50;99270.25;4973507;28;19955;-76
2022/09/03 00:49:21;;;;;;;;;;;;;;;23.38;61.16;99265.38;4973595;28;20310;-76
2022/09/03 00:51:55;;;;;;;;;;;;;;;23.32;61.15;99263.75;4973404;28;19918;-76
2022/09/03 00:54:39;;;;;;;;;;;;;;;23.31;61.88;99266.72;4973153;28;19914;-76
2022/09/03 00:57:24;;;;;;;;;;;;;;;23.36;61.25;99262.16;4972017;28;19910;-76
2022/09/03 01:00:01;;;;;;;;;;;;;;;23.40;61.39;99260.53;4973374;28;19914;-76
2022/09/03 01:02:38;;;;;;;;;;;;;;;23.42;60.69;99263.78;4973359;28;20406;-76
2022/09/03 01:05:06;;;;;;;;;;;;;;;23.42;61.38;99261.09;4972984;28;19926;-76
2022/09/03 01:07:38;;;;;;;;;;;;;;;23.36;62.12;99262.16;4972946;28;19950;-76
2022/09/03 01:10:06;;;;;;;;;;;;;;;23.31;60.54;99264.84;4973063;28;19948;-76
2022/09/03 01:12:46;;;;;;;;;;;;;;;23.32;61.36;99260.25;4973069;28;20321;-76
2022/09/03 01:15:20;;;;;;;;;;;;;;;23.33;61.17;99257.31;4973293;28;19914;-76
2022/09/03 01:18:04;;;;;;;;;;;;;;;23.35;61.35;99252.44;4973110;28;20314;-76
2022/09/03 01:20:37;;;;;;;;;;;;;;;23.39;60.48;99250.84;4972908;28;19930;-76
2022/09/03 01:23:19;;;;;;;;;;;;;;;23.37;60.95;99257.56;4973044;28;19914;-76
2022/09/03 01:26:03;;;;;;;;;;;;;;;23.38;60.96;99259.19;4971734;28;19918;-76
2022/09/03 01:28:31;;;;;;;;;;;;;;;23.39;60.36;99258.13;4972959;28;19914;-76
2022/09/03 01:31:10;;;;;;;;;;;;;;;23.39;61.27;99261.63;4971600;28;19990;-76
2022/09/03 01:33:40;;;;;;;;;;;;;;;23.39;59.92;99261.63;4972820;28;19914;-76
2022/09/03 01:36:15;;;;;;;;;;;;;;;23.34;60.97;99264.31;4972971;28;19937;-76
2022/09/03 01:38:55;;;;;;;;;;;;;;;23.31;60.98;99267.53;4971423;28;20001;-76
2022/09/03 01:44:17;;;;;;;;;;;;;;;23.37;61.34;99265.66;4972632;28;20361;-76
2022/09/03 01:46:45;;;;;;;;;;;;;;;23.42;61.30;99269.16;4972577;28;19925;-76
2022/09/03 01:49:19;;;;;;;;;;;;;;;23.46;60.70;99269.44;4972671;28;19968;-76
2022/09/03 01:51:45;;;;;;;;;;;;;;;23.45;60.75;99276.72;4972591;28;19922;-76
2022/09/03 01:54:29;;;;;;;;;;;;;;;23.42;61.43;99273.75;4972624;28;19914;-76
2022/09/03 01:57:03;;;;;;;;;;;;;;;23.40;61.20;99273.22;4972070;28;19920;-76
2022/09/03 01:59:50;;;;;;;;;;;;;;;23.36;60.80;99272.94;4972720;28;19937;-76
2022/09/03 02:02:20;;;;;;;;;;;;;;;23.32;61.86;99269.16;4971274;28;19914;-76
2022/09/03 02:05:17;;;;;;;;;;;;;;;23.35;61.12;99265.94;4972201;28;19946;-76
2022/09/03 02:07:42;;;;;;;;;;;;;;;23.39;62.41;99261.63;4960523;28;19913;-76
2022/09/03 02:10:11;;;;;;;;;;;;;;;23.37;62.16;99271.84;4971180;28;19918;-76
2022/09/03 02:12:37;;;;;;;;;;;;;;;23.39;62.19;99277.78;4972267;28;20369;-76
2022/09/03 02:15:05;;;;;;;;;;;;;;;23.39;61.71;99274.28;4972331;28;19918;-76
2022/09/03 02:17:32;;;;;;;;;;;;;;;23.40;61.62;99279.41;4970960;28;19914;-76
2022/09/03 02:20:01;;;;;;;;;;;;;;;23.42;61.70;99276.44;4970836;28;19929;-76
2022/09/03 02:22:26;;;;;;;;;;;;;;;23.41;62.30;99281.03;4972281;28;19984;-76
2022/09/03 02:24:51;;;;;;;;;;;;;;;23.40;62.55;99284.78;4970768;28;19918;-76
2022/09/03 02:27:17;;;;;;;;;;;;;;;23.40;61.10;99278.59;4970753;28;20008;-76
2022/09/03 02:29:43;;;;;;;;;;;;;;;23.39;61.20;99277.78;4972107;28;20431;-76
2022/09/03 02:32:08;;;;;;;;;;;;;;;23.39;61.71;99283.16;4971968;28;19967;-76
2022/09/03 02:34:33;;;;;;;;;;;;;;;23.42;61.18;99284.53;4972015;28;19994;-76
2022/09/03 02:36:58;;;;;;;;;;;;;;;23.38;61.89;99278.88;4971911;28;19914;-76
2022/09/03 02:39:24;;;;;;;;;;;;;;;23.38;61.41;99284.25;4970548;28;19910;-76
2022/09/03 02:41:56;;;;;;;;;;;;;;;23.38;61.32;99284.25;4971671;28;19953;-76
2022/09/03 02:44:29;;;;;;;;;;;;;;;23.42;61.13;99293.41;4971738;28;19937;-76
2022/09/03 02:46:59;;;;;;;;;;;;;;;23.42;61.77;99289.91;4970223;28;19924;-76
2022/09/03 02:49:25;;;;;;;;;;;;;;;23.41;61.86;99286.41;4970509;28;19922;-76
2022/09/03 02:51:51;;;;;;;;;;;;;;;23.32;61.62;99288.00;4971735;28;19922;-76
2022/09/03 02:54:16;;;;;;;;;;;;;;;23.29;60.72;99283.16;4971493;28;19915;-76
2022/09/03 02:56:42;;;;;;;;;;;;;;;23.30;61.90;99287.47;4971474;28;19914;-76
2022/09/03 02:59:08;;;;;;;;;;;;;;;23.14;62.05;99288.53;4971648;28;19918;-76
2022/09/03 03:01:33;;;;;;;;;;;;;;;23.12;61.99;99288.78;4971537;28;20353;-76
2022/09/03 03:03:59;;;;;;;;;;;;;;;23.13;61.19;99289.59;4971461;28;19918;-76
2022/09/03 03:06:24;;;;;;;;;;;;;;;23.11;61.08;99289.06;4969909;28;19922;-76
2022/09/03 03:08:50;;;;;;;;;;;;;;;23.09;62.37;99289.31;4971408;28;19989;-76
2022/09/03 03:11:17;;;;;;;;;;;;;;;23.11;61.47;99289.88;4971487;28;20386;-76
2022/09/03 03:13:43;;;;;;;;;;;;;;;23.12;62.05;99293.38;4971704;28;19919;-76
2022/09/03 03:16:08;;;;;;;;;;;;;;;23.15;61.83;99290.13;4970061;28;19914;-76
2022/09/03 03:18:34;;;;;;;;;;;;;;;23.14;61.42;99288.53;4971255;28;20432;-76
2022/09/03 03:21:09;;;;;;;;;;;;;;;23.10;61.97;99282.84;4971316;28;19922;-76
2022/09/03 03:23:35;;;;;;;;;;;;;;;23.14;61.25;99283.13;4971214;28;19914;-76
2022/09/03 03:26:04;;;;;;;;;;;;;;;23.17;61.52;99287.19;4971167;28;19918;-76
2022/09/03 03:28:32;;;;;;;;;;;;;;;23.16;61.57;99286.38;4971170;28;19914;-76
2022/09/03 03:30:58;;;;;;;;;;;;;;;23.10;61.88;99288.25;4969802;28;19921;-76
2022/09/03 03:33:23;;;;;;;;;;;;;;;23.12;62.25;99287.97;4970994;28;19914;-76
2022/09/03 03:35:48;;;;;;;;;;;;;;;23.14;62.32;99291.22;4969841;28;19921;-75
2022/09/03 03:38:14;;;;;;;;;;;;;;;23.17;62.36;99288.00;4970931;28;19920;-75
2022/09/03 03:40:39;;;;;;;;;;;;;;;23.17;61.11;99293.38;4970909;28;19910;-75
2022/09/03 03:43:05;;;;;;;;;;;;;;;23.18;62.03;99289.59;4969749;28;20318;-75
2022/09/03 03:45:30;;;;;;;;;;;;;;;23.20;60.65;99284.75;4971101;28;19922;-75
2022/09/03 03:47:57;;;;;;;;;;;;;;;23.14;61.77;99281.25;4970902;28;19914;-75
2022/09/03 03:50:23;;;;;;;;;;;;;;;23.10;62.30;99290.94;4969552;28;19914;-76
2022/09/03 03:52:48;;;;;;;;;;;;;;;23.02;62.40;99294.13;4970787;28;20370;-76
2022/09/03 03:55:13;;;;;;;;;;;;;;;22.99;62.15;99291.97;4970935;28;19914;-75
2022/09/03 03:57:39;;;;;;;;;;;;;;;22.82;62.55;99291.38;4970844;28;19929;-76
2022/09/03 04:00:04;;;;;;;;;;;;;;;22.80;63.22;99291.63;4970685;28;20348;-76
2022/09/03 04:02:29;;;;;;;;;;;;;;;22.83;63.03;99291.09;4970609;28;19949;-76
2022/09/03 04:04:55;;;;;;;;;;;;;;;22.84;62.70;99297.28;4970823;28;20307;-76
2022/09/03 04:07:20;;;;;;;;;;;;;;;22.90;63.11;99298.94;4970500;28;19971;-76
2022/09/03 04:09:46;;;;;;;;;;;;;;;22.88;63.00;99290.31;4970596;28;20379;-76
2022/09/03 04:12:11;;;;;;;;;;;;;;;22.87;62.23;99288.69;4970650;28;19922;-76
2022/09/03 04:14:37;;;;;;;;;;;;;;;22.89;62.24;99297.31;4970533;28;19918;-76
2022/09/03 04:17:02;;;;;;;;;;;;;;;22.77;62.91;99296.72;4970515;28;19997;-76
2022/09/03 04:19:30;;;;;;;;;;;;;;;22.79;62.63;99299.94;4969763;28;20009;-76
2022/09/03 04:21:56;;;;;;;;;;;;;;;22.79;62.68;99299.94;4970409;28;19969;-76
2022/09/03 04:24:21;;;;;;;;;;;;;;;22.81;62.74;99301.31;4970357;28;19942;-76
2022/09/03 04:26:49;;;;;;;;;;;;;;;22.82;61.93;99302.94;4970282;28;20318;-76
2022/09/03 04:29:14;;;;;;;;;;;;;;;22.87;61.15;99309.41;4969045;28;19920;-76
2022/09/03 04:32:51;;;;;;;;;;;;;;;22.86;61.92;99307.81;4970356;28;19914;-76
2022/09/03 04:34:25;;;;;;;;;;;;;;;22.91;61.46;99318.59;4970254;28;19914;-76
2022/09/03 04:36:50;;;;;;;;;;;;;;;22.93;61.94;99316.44;4970167;28;19914;-76
2022/09/03 04:39:15;;;;;;;;;;;;;;;22.93;62.18;99317.25;4970062;28;19914;-76
2022/09/03 04:41:40;;;;;;;;;;;;;;;22.91;61.37;99318.59;4969974;28;20014;-76
2022/09/03 04:44:05;;;;;;;;;;;;;;;22.96;62.16;99324.00;4970105;28;19914;-76
2022/09/03 04:46:33;;;;;;;;;;;;;;;23.03;61.47;99319.16;4970057;28;20132;-76
2022/09/03 04:48:59;;;;;;;;;;;;;;;23.06;61.19;99326.75;4970139;28;19914;-76
2022/09/03 04:51:28;;;;;;;;;;;;;;;23.07;61.14;99326.47;4970230;28;20460;-76
2022/09/03 04:53:55;;;;;;;;;;;;;;;23.07;61.22;99326.47;4968728;28;19914;-76
2022/09/03 04:56:25;;;;;;;;;;;;;;;23.05;61.47;99325.13;4970148;28;19921;-76
2022/09/03 04:58:53;;;;;;;;;;;;;;;22.97;61.51;99328.31;4969971;28;20383;-76
2022/09/03 05:01:22;;;;;;;;;;;;;;;22.96;61.46;99327.50;4969914;28;20394;-76
2022/09/03 05:03:51;;;;;;;;;;;;;;;23.00;61.12;99328.59;4969855;28;19957;-76
2022/09/03 05:06:16;;;;;;;;;;;;;;;23.02;61.55;99326.44;4969672;28;20017;-76
2022/09/03 05:08:45;;;;;;;;;;;;;;;23.09;60.86;99323.53;4969802;28;19996;-76
2022/09/03 05:11:10;;;;;;;;;;;;;;;23.11;61.38;99334.84;4969753;28;19914;-76
2022/09/03 05:13:36;;;;;;;;;;;;;;;23.04;61.39;99337.78;4969969;28;19925;-76
2022/09/03 05:16:06;;;;;;;;;;;;;;;23.04;61.10;99336.97;4969829;28;19914;-76
2022/09/03 05:18:31;;;;;;;;;;;;;;;23.06;61.69;99340.22;4968377;28;19973;-76
2022/09/03 05:20:58;;;;;;;;;;;;;;;23.10;61.21;99347.50;4969815;28;19941;-76
2022/09/03 05:23:24;;;;;;;;;;;;;;;23.16;60.73;99345.63;4969748;28;19914;-76
2022/09/03 05:25:59;;;;;;;;;;;;;;;23.21;60.53;99345.63;4969561;28;19925;-76
2022/09/03 05:28:29;;;;;;;;;;;;;;;23.23;60.42;99348.06;4969603;28;20389;-76
2022/09/03 05:30:58;;;;;;;;;;;;;;;23.20;60.74;99357.50;4970596;28;19914;-76
2022/09/03 05:33:23;;;;;;;;;;;;;;;23.24;60.81;99355.88;4972742;28;19914;-76
2022/09/03 05:35:48;;;;;;;;;;;;;;;23.29;60.94;99353.19;4971672;28;19968;-76
2022/09/03 05:38:16;;;;;;;;;;;;;;;23.32;61.36;99363.44;4972996;28;19993;-76
2022/09/03 05:40:42;;;;;;;;;;;;;;;23.33;61.05;99354.28;4972822;28;19914;-76
2022/09/03 05:43:07;;;;;;;;;;;;;;;23.33;60.17;99370.44;4971516;28;19917;-76
2022/09/03 05:45:32;;;;;;;;;;;;;;;23.36;60.89;99366.41;4972455;28;19918;-76
2022/09/03 05:47:59;;;;;;;;;;;;;;;23.33;60.39;99370.44;4972479;28;19914;-76
2022/09/03 05:50:24;;;;;;;;;;;;;;;23.28;60.52;99375.81;4972571;28;19914;-76
2022/09/03 05:52:50;;;;;;;;;;;;;;;23.32;60.49;99373.41;4972642;28;19914;-76
2022/09/03 05:55:15;;;;;;;;;;;;;;;23.32;60.34;99376.91;4972486;28;19918;-76
2022/09/03 05:57:42;;;;;;;;;;;;;;;23.42;59.81;99384.22;4972416;28;19913;-76
2022/09/03 06:00:08;;;;;;;;;;;;;;;23.42;59.92;99385.03;4972544;28;19914;-76
2022/09/03 06:02:33;;;;;;;;;;;;;;;23.40;59.95;99380.97;4972481;28;19920;-76
2022/09/03 06:04:59;;;;;;;;;;;;;;;23.39;59.53;99382.06;4970903;28;19914;-76
2022/09/03 06:07:24;;;;;;;;;;;;;;;23.39;59.26;99377.47;4972151;28;19914;-76
2022/09/03 06:09:49;;;;;;;;;;;;;;;23.49;59.26;99375.88;4971092;28;20295;-76
2022/09/03 06:12:14;;;;;;;;;;;;;;;23.50;59.32;99377.50;4972328;28;20008;-76
2022/09/03 06:14:40;;;;;;;;;;;;;;;23.53;59.29;99376.97;4972324;28;19914;-76
2022/09/03 06:17:05;;;;;;;;;;;;;;;23.63;58.57;99371.63;4972708;28;19922;-76
2022/09/03 06:19:30;;;;;;;;;;;;;;;23.51;59.19;99376.41;4972127;28;19922;-76
2022/09/03 06:21:56;;;;;;;;;;;;;;;23.48;58.97;99387.72;4970978;28;19915;-76
2022/09/03 06:24:22;;;;;;;;;;;;;;;23.53;58.82;99387.75;4972123;28;19921;-76
2022/09/03 06:26:47;;;;;;;;;;;;;;;23.50;59.20;99388.28;4972114;28;20005;-76
2022/09/03 06:29:13;;;;;;;;;;;;;;;23.59;58.75;99398.28;4971921;28;20000;-76
2022/09/03 06:31:38;;;;;;;;;;;;;;;23.67;58.49;99394.28;4971975;28;20378;-76
2022/09/03 06:34:04;;;;;;;;;;;;;;;23.70;58.57;99402.63;4971906;28;20408;-76
2022/09/03 06:36:30;;;;;;;;;;;;;;;23.61;59.24;99408.81;4972398;28;19914;-76
2022/09/03 06:38:56;;;;;;;;;;;;;;;23.62;58.89;99405.84;4970702;28;19921;-76
2022/09/03 06:41:23;;;;;;;;;;;;;;;23.70;58.27;99416.09;4971378;28;20386;-76
2022/09/03 06:43:50;;;;;;;;;;;;;;;23.73;58.10;99415.56;4970514;28;19914;-76
2022/09/03 06:46:16;;;;;;;;;;;;;;;23.75;58.04;99418.00;4971592;28;19919;-76
2022/09/03 06:48:42;;;;;;;;;;;;;;;23.74;58.03;99416.38;4970434;28;19967;-76
2022/09/03 06:51:18;;;;;;;;;;;;;;;23.74;58.09;99419.06;4970404;28;19914;-76
2022/09/03 06:53:44;;;;;;;;;;;;;;;23.80;57.89;99419.94;4971626;28;19918;-76
2022/09/03 06:56:11;;;;;;;;;;;;;;;23.83;57.75;99416.69;4971896;28;20351;-76
2022/09/03 06:58:42;;;;;;;;;;;;;;;23.75;58.00;99410.72;4971672;28;20406;-76
2022/09/03 07:01:21;;;;;;;;;;;;;;;23.80;57.96;99412.66;4971720;28;19967;-76
2022/09/03 07:03:51;;;;;;;;;;;;;;;23.83;57.89;99422.91;4971285;28;19953;-76
2022/09/03 07:06:17;;;;;;;;;;;;;;;23.88;57.91;99416.69;4971120;28;19918;-76
2022/09/03 07:08:42;;;;;;;;;;;;;;;23.86;58.06;99421.56;4971199;28;19969;-76
2022/09/03 07:11:09;;;;;;;;;;;;;;;23.92;58.55;99433.97;4971434;28;19967;-76
2022/09/03 07:13:35;;;;;;;;;;;;;;;23.98;58.06;99441.78;4971152;28;19925;-77
2022/09/03 07:16:02;;;;;;;;;;;;;;;24.05;57.81;99441.53;4971140;28;19967;-76
2022/09/03 07:18:28;;;;;;;;;;;;;;;24.08;58.25;99438.28;4971108;28;19914;-76
2022/09/03 07:21:00;;;;;;;;;;;;;;;24.13;58.29;99435.59;4971341;28;19925;-76
2022/09/03 07:23:26;;;;;;;;;;;;;;;24.29;57.75;99431.03;4971289;28;19914;-76
2022/09/03 07:25:55;;;;;;;;;;;;;;;24.40;57.89;99436.16;4971089;28;19922;-76
2022/09/03 07:28:22;;;;;;;;;;;;;;;24.45;57.33;99426.44;4971000;28;19914;-76
2022/09/03 07:30:47;;;;;;;;;;;;;;;24.54;56.90;99433.75;4970858;28;19918;-76
2022/09/03 07:33:12;;;;;;;;;;;;;;;24.62;56.86;99441.28;4970861;28;20389;-76
2022/09/03 07:35:38;;;;;;;;;;;;;;;24.63;56.73;99439.41;4970965;28;19940;-76
2022/09/03 07:38:03;;;;;;;;;;;;;;;24.73;56.26;99446.66;4970858;28;19914;-77
2022/09/03 07:40:28;;;;;;;;;;;;;;;24.81;56.26;99449.63;4969720;28;19914;-76
2022/09/03 07:43:03;;;;;;;;;;;;;;;24.88;55.68;99452.84;4970988;28;20449;-76
2022/09/03 07:45:28;;;;;;;;;;;;;;;24.94;55.68;99453.63;4970735;28;20407;-76
2022/09/03 07:47:54;;;;;;;;;;;;;;;24.98;55.67;99452.84;4970742;28;19923;-76
2022/09/03 07:50:19;;;;;;;;;;;;;;;25.07;55.61;99453.09;4969501;28;19914;-76
2022/09/03 07:52:45;;;;;;;;;;;;;;;25.12;55.33;99444.97;4970058;28;19952;-76
2022/09/03 07:55:11;;;;;;;;;;;;;;;25.23;55.43;99446.53;4970511;28;19914;-76
2022/09/03 07:57:36;;;;;;;;;;;;;;;25.05;55.55;99441.75;4970681;28;19918;-76
2022/09/03 08:00:02;;;;;;;;;;;;;;;25.18;55.67;99443.88;4969900;28;19914;-76
2022/09/03 08:02:27;;;;;;;;;;;;;;;25.32;55.17;99438.69;4970334;28;20410;-77
2022/09/03 08:04:52;;;;;;;;;;;;;;;25.47;54.84;99430.50;4970413;28;19914;-77
2022/09/03 08:07:17;;;;;;;;;;;;;;;25.63;54.86;99428.53;4968992;28;20002;-77
2022/09/03 08:09:43;;;;;;;;;;;;;;;25.72;54.53;99431.50;4970235;28;19914;-77
2022/09/03 08:12:08;;;;;;;;;;;;;;;25.77;54.15;99428.75;4970429;28;19926;-77
2022/09/03 08:14:33;;;;;;;;;;;;;;;25.82;53.30;99429.53;4970428;28;20438;-77
2022/09/03 08:16:59;;;;;;;;;;;;;;;25.87;53.33;99426.78;4970373;28;19918;-77
2022/09/03 08:19:24;;;;;;;;;;;;;;;25.98;53.50;99431.03;4970438;28;20368;-77
2022/09/03 08:21:49;;;;;;;;;;;;;;;26.05;53.37;99428.03;4970385;28;20008;-77
2022/09/03 08:24:15;;;;;;;;;;;;;;;26.18;52.92;99423.88;4970246;28;19957;-77
2022/09/03 08:26:41;;;;;;;;;;;;;;;26.26;52.13;99439.50;4970114;28;20391;-77
2022/09/03 08:29:07;;;;;;;;;;;;;;;26.33;51.41;99431.09;4970131;28;19972;-77
2022/09/03 08:31:33;;;;;;;;;;;;;;;26.38;51.63;99439.16;4970317;28;19914;-77
2022/09/03 08:33:59;;;;;;;;;;;;;;;26.44;51.68;99435.31;4970242;28;20005;-77
2022/09/03 08:36:26;;;;;;;;;;;;;;;26.47;50.96;99432.03;4968951;28;19914;-77
2022/09/03 08:38:55;;;;;;;;;;;;;;;26.59;51.00;99422.44;4970115;28;19964;-77
2022/09/03 08:41:39;;;;;;;;;;;;;;;26.68;50.35;99424.53;4969702;28;20355;-77
2022/09/03 08:44:11;;;;;;;;;;;;;;;26.83;50.99;99414.34;4968626;28;20425;-77
2022/09/03 08:46:54;;;;;;;;;;;;;;;27.00;50.19;99419.34;4969926;28;19941;-77
2022/09/03 08:49:22;;;;;;;;;;;;;;;27.02;49.70;99419.06;4970119;28;19958;-77
2022/09/03 08:51:50;;;;;;;;;;;;;;;27.09;49.12;99414.09;4970230;28;19977;-77
2022/09/03 08:54:16;;;;;;;;;;;;;;;27.19;49.41;99414.78;4969780;28;20363;-77
2022/09/03 08:56:42;;;;;;;;;;;;;;;27.35;48.12;99415.38;4969933;28;19921;-77
2022/09/03 08:59:08;;;;;;;;;;;;;;;27.46;48.46;99410.63;4969927;28;20363;-77
2022/09/03 09:01:50;;;;;;;;;;;;;;;27.74;48.55;99403.50;4968442;28;19910;-77
2022/09/03 09:04:15;;;;;;;;;;;;;;;27.90;48.40;99414.91;4970121;28;20395;-77
2022/09/03 09:06:41;;;;;;;;;;;;;;;28.05;47.94;99411.97;4972910;28;20005;-76
2022/09/03 09:09:29;;;;;;;;;;;;;;;28.29;47.50;99404.56;4971854;28;19968;-76
2022/09/03 09:12:07;;;;;;;;;;;;;;;28.35;47.08;99416.13;4973173;28;19971;-77
2022/09/03 09:14:35;;;;;;;;;;;;;;;28.24;47.33;99409.25;4971813;28;19998;-77
2022/09/03 09:17:01;;;;;;;;;;;;;;;28.53;47.10;99409.03;4973000;28;19914;-77
2022/09/03 09:19:40;;;;;;;;;;;;;;;28.77;46.42;99407.75;4973010;28;19929;-77
2022/09/03 09:22:24;;;;;;;;;;;;;;;28.71;45.54;99408.94;4971729;28;19967;-76
2022/09/03 09:24:52;;;;;;;;;;;;;;;28.52;46.41;99407.41;4972932;28;20449;-77
2022/09/03 09:27:18;;;;;;;;;;;;;;;28.59;45.58;99405.91;4972800;28;19922;-77
2022/09/03 09:29:48;;;;;;;;;;;;;;;28.57;46.03;99410.03;4972873;28;19914;-76
2022/09/03 09:32:16;;;;;;;;;;;;;;;28.45;46.15;99418.66;4972892;28;19914;-76
2022/09/03 09:34:41;;;;;;;;;;;;;;;28.42;45.97;99414.66;4972801;28;19914;-77
2022/09/03 09:37:08;;;;;;;;;;;;;;;28.45;45.39;99405.91;4972676;28;19921;-76
2022/09/03 09:39:34;;;;;;;;;;;;;;;28.52;46.27;99410.13;4972739;28;19914;-76
2022/09/03 09:42:07;;;;;;;;;;;;;;;28.51;46.37;99405.81;4972682;28;19922;-76
2022/09/03 09:44:32;;;;;;;;;;;;;;;28.40;46.50;99394.31;4971588;28;19914;-77
2022/09/03 09:47:03;;;;;;;;;;;;;;;28.57;46.47;99396.47;4972380;28;19918;-76
2022/09/03 09:49:58;;;;;;;;;;;;;;;28.96;45.07;99396.00;4972508;28;19968;-76
2022/09/03 09:52:24;;;;;;;;;;;;;;;29.54;43.40;99396.16;4962670;28;19952;-76
2022/09/03 09:54:51;;;;;;;;;;;;;;;29.93;43.08;99403.69;4971347;28;19972;-77
2022/09/03 09:57:20;;;;;;;;;;;;;;;30.13;41.79;99399.69;4972381;28;20305;-77
2022/09/03 09:59:45;;;;;;;;;;;;;;;29.89;43.63;99400.00;4971451;28;19989;-76
2022/09/03 10:02:13;;;;;;;;;;;;;;;29.75;43.21;99403.88;4972493;28;19922;-77
2022/09/03 10:04:39;;;;;;;;;;;;;;;29.94;43.45;99415.41;4971024;28;19921;-77
2022/09/03 10:07:19;;;;;;;;;;;;;;;29.99;42.02;99413.34;4972179;28;19925;-76
2022/09/03 10:09:44;;;;;;;;;;;;;;;29.94;44.24;99415.41;4970967;28;19921;-77
2022/09/03 10:12:23;;;;;;;;;;;;;;;30.12;42.14;99410.91;4972173;28;20310;-77
2022/09/03 10:14:56;;;;;;;;;;;;;;;30.18;41.68;99415.13;4971728;28;20311;-77
2022/09/03 10:17:21;;;;;;;;;;;;;;;30.24;42.07;99428.28;4971301;28;19914;-77
2022/09/03 10:20:26;;;;;;;;;;;;;;;30.50;41.14;99414.03;4971954;28;20394;-77
2022/09/03 10:22:41;;;;;;;;;;;;;;;30.82;40.66;99412.94;4971939;28;19921;-77
2022/09/03 10:25:08;;;;;;;;;;;;;;;31.08;41.68;99399.38;4970740;28;19922;-77
2022/09/03 10:27:33;;;;;;;;;;;;;;;31.39;40.68;99415.72;4972223;28;19920;-77
2022/09/03 10:29:59;;;;;;;;;;;;;;;31.54;39.68;99405.13;4972263;28;20005;-76
2022/09/03 10:32:44;;;;;;;;;;;;;;;31.75;38.12;99409.97;4971820;28;19949;-76
2022/09/03 10:35:27;;;;;;;;;;;;;;;31.91;38.71;99411.09;4971835;28;19914;-77
2022/09/03 10:37:58;;;;;;;;;;;;;;;31.79;39.00;99410.94;4970608;28;20300;-76
2022/09/03 10:40:30;;;;;;;;;;;;;;;31.92;38.83;99399.03;4971887;28;20409;-77
2022/09/03 10:43:07;;;;;;;;;;;;;;;32.19;39.02;99393.25;4970535;28;19992;-77
2022/09/03 10:45:35;;;;;;;;;;;;;;;32.23;39.17;99394.19;4971775;28;20390;-76
2022/09/03 10:48:00;;;;;;;;;;;;;;;32.13;38.45;99389.09;4971662;28;19918;-77
2022/09/03 10:50:27;;;;;;;;;;;;;;;31.92;38.35;99390.84;4971679;28;19921;-76
2022/09/03 10:52:53;;;;;;;;;;;;;;;32.17;39.94;99400.97;4971564;28;19920;-77
2022/09/03 10:55:23;;;;;;;;;;;;;;;32.43;39.24;99391.94;4970128;28;19914;-77
2022/09/03 10:58:04;;;;;;;;;;;;;;;32.38;37.52;99383.91;4971328;28;20005;-77
2022/09/03 11:00:33;;;;;;;;;;;;;;;32.66;37.35;99390.56;4971489;28;19914;-77
2022/09/03 11:03:16;;;;;;;;;;;;;;;32.89;36.29;99382.13;4970303;28;20307;-76
2022/09/03 11:05:52;;;;;;;;;;;;;;;33.17;37.44;99383.25;4971361;28;19953;-77
2022/09/03 11:08:22;;;;;;;;;;;;;;;33.18;36.31;99382.94;4971481;28;20363;-77
2022/09/03 11:10:51;;;;;;;;;;;;;;;33.46;35.18;99382.47;4971461;28;19914;-76
2022/09/03 11:13:23;;;;;;;;;;;;;;;33.62;34.67;99388.13;4971416;28;19918;-77
2022/09/03 11:15:58;;;;;;;;;;;;;;;33.67;34.87;99377.78;4971470;28;19918;-77
2022/09/03 11:18:32;;;;;;;;;;;;;;;33.65;36.81;99382.78;4969995;28;19921;-76
2022/09/03 11:21:03;;;;;;;;;;;;;;;33.19;35.78;99372.78;4971278;28;19918;-77
2022/09/03 11:23:30;;;;;;;;;;;;;;;32.83;36.19;99390.53;4971411;28;19920;-76
2022/09/03 11:25:57;;;;;;;;;;;;;;;32.80;36.43;99385.72;4969753;28;19918;-77
2022/09/03 11:28:22;;;;;;;;;;;;;;;32.71;37.60;99395.06;4969773;28;19915;-77
2022/09/03 11:30:51;;;;;;;;;;;;;;;32.40;37.28;99387.13;4971094;28;19914;-76
2022/09/03 11:33:18;;;;;;;;;;;;;;;32.07;37.68;99395.84;4971099;28;19976;-77
2022/09/03 11:35:44;;;;;;;;;;;;;;;31.97;39.12;99389.91;4969748;28;19914;-76
2022/09/03 11:38:15;;;;;;;;;;;;;;;32.23;38.17;99386.00;4970950;28;20397;-76
2022/09/03 11:40:59;;;;;;;;;;;;;;;32.46;36.53;99378.41;4970900;28;19921;-76
2022/09/03 11:43:24;;;;;;;;;;;;;;;32.65;37.35;99377.22;4970836;28;20379;-76
2022/09/03 11:46:10;;;;;;;;;;;;;;;32.54;37.28;99374.84;4970801;28;19918;-76
2022/09/03 11:48:42;;;;;;;;;;;;;;;33.05;36.33;99364.03;4970771;28;20005;-76
2022/09/03 11:51:16;;;;;;;;;;;;;;;33.46;37.28;99369.59;4970913;28;20366;-76
2022/09/03 11:53:52;;;;;;;;;;;;;;;33.84;36.26;99367.84;4970847;28;20013;-76
2022/09/03 11:56:18;;;;;;;;;;;;;;;33.68;35.66;99370.38;4970678;28;19925;-77
2022/09/03 11:58:43;;;;;;;;;;;;;;;33.71;35.66;99375.97;4970582;28;19911;-76
2022/09/03 12:01:14;;;;;;;;;;;;;;;33.92;34.85;99378.72;4969425;28;19921;-76
2022/09/03 12:03:57;;;;;;;;;;;;;;;34.02;33.30;99378.28;4970582;28;19917;-76
2022/09/03 12:06:41;;;;;;;;;;;;;;;33.89;34.00;99376.66;4970674;28;19925;-76
2022/09/03 12:09:21;;;;;;;;;;;;;;;34.04;35.38;99367.78;4970763;28;19915;-76
2022/09/03 12:11:49;;;;;;;;;;;;;;;33.95;32.82;99361.59;4970522;28;20397;-76
2022/09/03 12:14:15;;;;;;;;;;;;;;;33.94;34.01;99351.78;4970504;28;19914;-76
2022/09/03 12:16:50;;;;;;;;;;;;;;;33.94;35.11;99360.00;4970449;28;19962;-77
2022/09/03 12:19:20;;;;;;;;;;;;;;;34.03;33.09;99362.66;4970219;28;19922;-77
2022/09/03 12:21:47;;;;;;;;;;;;;;;33.87;35.09;99359.75;4970136;28;19972;-76
2022/09/03 12:24:18;;;;;;;;;;;;;;;33.89;33.12;99349.25;4970110;28;19968;-76
2022/09/03 12:26:44;;;;;;;;;;;;;;;33.94;33.87;99350.97;4970122;28;19996;-77
2022/09/03 12:29:25;;;;;;;;;;;;;;;33.92;33.11;99347.78;4970170;28;20497;-77
2022/09/03 12:31:51;;;;;;;;;;;;;;;33.84;35.21;99359.63;4970285;28;19957;-77
2022/09/03 12:34:19;;;;;;;;;;;;;;;33.71;32.89;99348.59;4970367;28;19956;-77
2022/09/03 12:36:46;;;;;;;;;;;;;;;33.65;33.50;99343.66;4970249;28;19915;-76
2022/09/03 12:39:19;;;;;;;;;;;;;;;33.76;32.59;99344.84;4969757;28;19967;-76
2022/09/03 12:42:00;;;;;;;;;;;;;;;33.76;34.05;99337.44;4969861;28;19914;-76
2022/09/03 12:44:45;;;;;;;;;;;;;;;33.94;33.53;99340.81;4968715;28;20001;-76
2022/09/03 12:47:17;;;;;;;;;;;;;;;33.90;33.88;99331.69;4969730;28;19919;-76
2022/09/03 12:49:50;;;;;;;;;;;;;;;34.07;33.16;99339.72;4970369;28;20452;-76
2022/09/03 12:52:27;;;;;;;;;;;;;;;34.19;32.06;99336.22;4968790;28;19950;-76
2022/09/03 12:54:55;;;;;;;;;;;;;;;33.90;35.37;99345.38;4970022;28;19918;-77
2022/09/03 12:57:27;;;;;;;;;;;;;;;33.83;34.45;99352.53;4970154;28;20457;-77
2022/09/03 12:59:54;;;;;;;;;;;;;;;34.00;33.36;99352.38;4970575;28;19918;-77
2022/09/03 13:02:23;;;;;;;;;;;;;;;34.15;32.66;99339.97;4970052;28;19971;-77